createdAt,value
2022-10-03T00:01:40.693Z,980.02
2022-10-03T00:06:40.250Z,980.04
2022-10-03T00:11:40.529Z,980.09
2022-10-03T00:16:40.104Z,980.12
2022-10-03T00:21:40.425Z,980.17
2022-10-03T00:26:40.030Z,980.21
2022-10-03T00:31:40.155Z,980.30
2022-10-03T00:36:39.854Z,980.27
2022-10-03T00:41:39.951Z,980.32
2022-10-03T00:46:39.765Z,980.34
2022-10-03T00:51:39.805Z,980.32
2022-10-03T00:56:39.568Z,980.39
2022-10-03T01:01:39.816Z,980.47
2022-10-03T01:06:39.469Z,980.50
2022-10-03T01:11:39.590Z,980.49
2022-10-03T01:16:39.319Z,980.53
2022-10-03T01:21:39.466Z,980.57
2022-10-03T01:26:39.180Z,980.58
2022-10-03T01:31:39.451Z,980.56
2022-10-03T01:36:39.123Z,980.64
2022-10-03T01:41:39.227Z,980.64
2022-10-03T01:46:38.983Z,980.74
2022-10-03T01:51:39.061Z,980.67
2022-10-03T01:56:38.811Z,980.72
2022-10-03T02:01:38.937Z,980.79
2022-10-03T02:06:38.691Z,980.91
2022-10-03T02:11:38.973Z,980.96
2022-10-03T02:16:38.649Z,980.99
2022-10-03T02:21:38.717Z,981.03
2022-10-03T02:26:38.443Z,981.01
2022-10-03T02:31:38.809Z,981.08
2022-10-03T02:36:38.317Z,981.18
2022-10-03T02:41:38.468Z,981.18
2022-10-03T02:46:38.200Z,981.18
2022-10-03T02:51:38.362Z,981.26
2022-10-03T02:56:38.056Z,981.26
2022-10-03T03:01:38.228Z,981.29
2022-10-03T03:06:37.952Z,981.31
2022-10-03T03:11:38.184Z,981.33
2022-10-03T03:16:37.849Z,981.35
2022-10-03T03:21:37.964Z,981.33
2022-10-03T03:26:37.688Z,981.41
2022-10-03T03:31:38.097Z,981.42
2022-10-03T03:36:37.565Z,981.47
2022-10-03T03:41:37.708Z,981.52
2022-10-03T03:46:37.440Z,981.57
2022-10-03T03:51:37.825Z,981.63
2022-10-03T03:56:37.298Z,981.68
2022-10-03T04:01:37.248Z,981.70
2022-10-03T04:06:37.162Z,981.77
2022-10-03T04:11:37.416Z,981.75
2022-10-03T04:16:37.117Z,981.70
2022-10-03T04:21:37.257Z,981.73
2022-10-03T04:26:36.914Z,981.78
2022-10-03T04:31:36.933Z,981.83
2022-10-03T04:36:36.782Z,981.83
2022-10-03T04:41:40.830Z,981.88
2022-10-03T04:46:37.665Z,981.83
2022-10-03T04:51:36.811Z,981.87
2022-10-03T04:56:36.533Z,981.83
2022-10-03T05:01:36.771Z,981.91
2022-10-03T05:06:36.405Z,981.90
2022-10-03T05:11:36.488Z,981.96
2022-10-03T05:16:36.405Z,981.98
2022-10-03T05:21:36.488Z,981.98
2022-10-03T05:26:51.428Z,981.90
2022-10-03T05:31:37.402Z,982.00
2022-10-03T05:36:36.024Z,982.04
2022-10-03T05:41:35.963Z,982.09
2022-10-03T05:46:35.902Z,982.19
2022-10-03T05:51:35.963Z,982.22
2022-10-03T05:56:40.753Z,982.32
2022-10-03T06:01:37.050Z,982.36
2022-10-03T06:06:35.658Z,982.35
2022-10-03T06:11:35.588Z,982.37
2022-10-03T06:16:35.520Z,982.44
2022-10-03T06:21:35.459Z,982.47
2022-10-03T06:26:35.409Z,982.55
2022-10-03T06:31:35.329Z,982.57
2022-10-03T06:36:35.272Z,982.62
2022-10-03T06:41:35.202Z,982.61
2022-10-03T06:46:35.181Z,982.64
2022-10-03T06:51:35.072Z,982.62
2022-10-03T06:56:35.004Z,982.65
2022-10-03T07:01:35.129Z,982.70
2022-10-03T07:06:34.873Z,982.78
2022-10-03T07:11:34.824Z,982.77
2022-10-03T07:16:34.785Z,982.85
2022-10-03T07:21:34.723Z,982.86
2022-10-03T07:26:34.634Z,982.90
2022-10-03T07:31:34.635Z,982.87
2022-10-03T07:36:34.509Z,982.86
2022-10-03T07:41:34.452Z,983.01
2022-10-03T07:46:34.418Z,983.04
2022-10-03T07:51:34.337Z,983.02
2022-10-03T07:56:34.248Z,983.13
2022-10-03T08:01:34.216Z,983.13
2022-10-03T08:06:34.119Z,983.13
2022-10-03T08:11:34.077Z,983.05
2022-10-03T08:16:33.995Z,983.06
2022-10-03T08:21:33.938Z,983.12
2022-10-03T08:26:33.869Z,983.10
2022-10-03T08:31:33.887Z,983.21
2022-10-03T08:36:33.788Z,983.18
2022-10-03T08:41:33.692Z,983.18
2022-10-03T08:46:33.681Z,983.18
2022-10-03T08:51:33.550Z,983.23
2022-10-03T08:56:33.480Z,983.23
2022-10-03T09:01:33.454Z,983.30
2022-10-03T09:06:33.454Z,983.32
2022-10-03T09:11:33.342Z,983.31
2022-10-03T09:16:33.304Z,983.35
2022-10-03T09:21:37.083Z,983.31
2022-10-03T09:26:33.104Z,983.29
2022-10-03T09:31:33.077Z,983.33
2022-10-03T09:36:32.975Z,983.39
2022-10-03T09:41:32.926Z,983.40
2022-10-03T09:46:32.887Z,983.36
2022-10-03T09:51:32.806Z,983.34
2022-10-03T09:56:32.726Z,983.28
2022-10-03T10:01:32.668Z,983.41
2022-10-03T10:06:32.613Z,983.39
2022-10-03T10:11:35.259Z,983.41
2022-10-03T10:16:32.534Z,983.43
2022-10-03T10:21:32.419Z,983.48
2022-10-03T10:26:32.352Z,983.47
2022-10-03T10:31:32.317Z,983.45
2022-10-03T10:36:32.240Z,983.47
2022-10-03T10:41:32.170Z,983.41
2022-10-03T10:46:32.129Z,983.43
2022-10-03T10:51:32.052Z,983.34
2022-10-03T10:56:31.973Z,983.33
2022-10-03T11:01:31.948Z,983.33
2022-10-03T11:06:31.843Z,983.31
2022-10-03T11:11:31.804Z,983.31
2022-10-03T11:16:31.801Z,983.39
2022-10-03T11:21:31.657Z,983.34
2022-10-03T11:26:31.609Z,983.37
2022-10-03T11:31:31.586Z,983.40
2022-10-03T11:36:31.456Z,983.36
2022-10-03T11:41:31.388Z,983.42
2022-10-03T11:46:31.334Z,983.43
2022-10-03T11:51:31.289Z,983.43
2022-10-03T11:56:31.208Z,983.44
2022-10-03T12:01:31.138Z,983.39
2022-10-03T12:06:31.069Z,983.36
2022-10-03T12:11:31.007Z,983.31
2022-10-03T12:16:31.006Z,983.25
2022-10-03T12:21:30.885Z,983.19
2022-10-03T12:26:30.832Z,983.14
2022-10-03T12:31:30.794Z,983.23
2022-10-03T12:36:30.684Z,983.12
2022-10-03T12:41:30.604Z,983.17
2022-10-03T12:46:30.555Z,983.16
2022-10-03T12:51:30.495Z,983.14
2022-10-03T12:56:30.415Z,983.14
2022-10-03T13:01:30.431Z,983.09
2022-10-03T13:06:58.273Z,983.08
2022-10-03T13:11:31.246Z,983.10
2022-10-03T13:16:30.162Z,983.10
2022-10-03T13:21:46.697Z,983.05
2022-10-03T13:26:31.092Z,983.00
2022-10-03T13:31:30.037Z,982.97
2022-10-03T13:36:29.954Z,982.91
2022-10-03T13:41:29.869Z,982.86
2022-10-03T13:46:29.938Z,982.87
2022-10-03T13:51:29.764Z,982.84
2022-10-03T13:56:29.731Z,982.88
2022-10-03T14:01:29.649Z,982.86
2022-10-03T14:06:31.857Z,982.76
2022-10-03T14:11:30.473Z,982.77
2022-10-03T14:16:29.448Z,982.85
2022-10-03T14:21:29.355Z,982.79
2022-10-03T14:26:29.314Z,982.71
2022-10-03T14:31:29.221Z,982.67
2022-10-03T14:36:29.156Z,982.66
2022-10-03T14:41:29.089Z,982.64
2022-10-03T14:46:29.029Z,982.58
2022-10-03T14:51:28.948Z,982.65
2022-10-03T14:56:28.899Z,982.64
2022-10-03T15:01:28.888Z,982.70
2022-10-03T15:06:28.772Z,982.69
2022-10-03T15:11:28.695Z,982.67
2022-10-03T15:16:28.699Z,982.58
2022-10-03T15:21:28.572Z,982.59
2022-10-03T15:26:28.514Z,982.58
2022-10-03T15:31:28.514Z,982.56
2022-10-03T15:36:28.397Z,982.67
2022-10-03T15:41:28.317Z,982.71
2022-10-03T15:46:28.327Z,982.70
2022-10-03T15:51:28.186Z,982.69
2022-10-03T15:56:28.116Z,982.76
2022-10-03T16:01:28.094Z,982.78
2022-10-03T16:06:30.202Z,982.73
2022-10-03T16:11:28.935Z,982.70
2022-10-03T16:16:27.905Z,982.71
2022-10-03T16:21:27.799Z,982.71
2022-10-03T16:26:27.753Z,982.77
2022-10-03T16:31:27.722Z,982.79
2022-10-03T16:36:27.613Z,982.81
2022-10-03T16:41:27.554Z,982.81
2022-10-03T16:46:27.462Z,982.76
2022-10-03T16:51:27.422Z,982.83
2022-10-03T16:56:27.354Z,982.81
2022-10-03T17:01:38.063Z,982.88
2022-10-03T17:06:28.224Z,982.93
2022-10-03T17:11:27.162Z,982.99
2022-10-03T17:16:27.143Z,982.99
2022-10-03T17:21:27.047Z,983.02
2022-10-03T17:26:26.971Z,983.01
2022-10-03T17:31:26.954Z,983.00
2022-10-03T17:36:26.876Z,983.00
2022-10-03T17:41:26.778Z,982.99
2022-10-03T17:46:26.751Z,983.06
2022-10-03T17:51:26.656Z,983.11
2022-10-03T17:56:26.599Z,983.14
2022-10-03T18:01:26.548Z,983.13
2022-10-03T18:06:26.451Z,983.19
2022-10-03T18:11:26.400Z,983.15
2022-10-03T18:16:26.411Z,983.19
2022-10-03T18:21:26.253Z,983.17
2022-10-03T18:26:26.212Z,983.14
2022-10-03T18:31:26.183Z,983.17
2022-10-03T18:36:26.080Z,983.15
2022-10-03T18:41:26.012Z,983.15
2022-10-03T18:46:26.019Z,983.10
2022-10-03T18:51:25.893Z,983.12
2022-10-03T18:56:25.826Z,983.09
2022-10-03T19:01:25.840Z,983.17
2022-10-03T19:06:25.722Z,983.18
2022-10-03T19:11:25.649Z,983.17
2022-10-03T19:16:25.692Z,983.18
2022-10-03T19:21:25.516Z,983.21
2022-10-03T19:26:25.448Z,983.25
2022-10-03T19:31:25.448Z,983.21
2022-10-03T19:36:25.310Z,983.20
2022-10-03T19:41:25.253Z,983.16
2022-10-03T19:46:25.196Z,983.24
2022-10-03T19:51:25.779Z,983.25
2022-10-03T19:56:25.064Z,983.32
2022-10-03T20:01:25.026Z,983.36
2022-10-03T20:06:24.940Z,983.26
2022-10-03T20:11:24.879Z,983.16
2022-10-03T20:16:24.898Z,983.18
2022-10-03T20:21:24.729Z,983.13
2022-10-03T20:26:24.691Z,983.13
2022-10-03T20:31:24.678Z,983.04
2022-10-03T20:36:24.560Z,983.07
2022-10-03T20:41:24.511Z,982.97
2022-10-03T20:46:24.485Z,982.99
2022-10-03T20:51:24.395Z,983.05
2022-10-03T20:56:24.296Z,983.04
2022-10-03T21:01:24.370Z,982.98
2022-10-03T21:06:24.180Z,983.02
2022-10-03T21:11:24.103Z,983.03
2022-10-03T21:16:24.110Z,982.91
2022-10-03T21:21:23.996Z,982.93
2022-10-03T21:26:23.923Z,982.98
2022-10-03T21:31:23.882Z,982.94
2022-10-03T21:36:23.785Z,983.00
2022-10-03T21:41:23.753Z,983.04
2022-10-03T21:46:23.684Z,982.97
2022-10-03T21:51:23.572Z,982.94
2022-10-03T21:56:23.517Z,983.00
2022-10-03T22:01:23.512Z,983.02
2022-10-03T22:06:23.390Z,982.96
2022-10-03T22:11:23.325Z,982.87
2022-10-03T22:16:23.307Z,982.89
2022-10-03T22:21:23.173Z,982.75
2022-10-03T22:26:23.112Z,982.73
2022-10-03T22:31:23.078Z,982.59
2022-10-03T22:36:22.967Z,982.53
2022-10-03T22:41:22.896Z,982.47
2022-10-03T22:46:22.890Z,982.44
2022-10-03T22:51:22.748Z,982.43
2022-10-03T22:56:22.696Z,982.40
2022-10-03T23:01:22.676Z,982.47
2022-10-03T23:06:22.558Z,982.44
2022-10-03T23:11:22.517Z,982.48
2022-10-03T23:16:22.507Z,982.50
2022-10-03T23:21:22.391Z,982.48
2022-10-03T23:26:22.332Z,982.50
2022-10-03T23:31:22.280Z,982.52
2022-10-03T23:36:22.199Z,982.49
2022-10-03T23:41:22.149Z,982.49
2022-10-03T23:46:22.129Z,982.50
2022-10-03T23:51:22.028Z,982.52
2022-10-03T23:56:21.962Z,982.48
